Latest Weather Observations for Yulara

IDD60801

Issued at 4:51 pm CST Friday 18 January 2019 (issued every 10 minutes, with the page automatically refreshed every 10 minutes)

About weather observations | Map of weather stations | Latest weather observations for NT | Other Formats
Station Details ID: 015635 Name: YULARA AIRPORT Lat: -25.19 Lon: 130.97 Height: 492.0 m
Data from the previous 72 hours. | See also: Recent months at Yulara
Date/Time
CST
Temp
°C
App
Temp
°C
Dew
Point
°C
Rel
Hum
%
Delta-T
°C
Wind Press
QNH
hPa
Press
MSL
hPa
Rain since
9am
mm
Dir  Spd
km/h
Gust
km/h
Spd
kts
Gust
kts
18/04:30pm 38.6 34.1 10.0 18 17.2 S 24 41 13 22 1008.2 1004.2 0.0
18/04:22pm 38.8 33.6 10.2 18 17.2 SSE 28 48 15 26 1008.2 1004.2 0.0
18/04:00pm 39.5 35.0 9.9 17 17.8 S 24 41 13 22 1008.3 1004.3 0.0
18/03:30pm 38.4 35.2 9.9 18 17.1 S 17 28 9 15 1008.6 1004.6 0.0
18/03:00pm 37.5 33.9 10.0 19 16.4 S 19 28 10 15 1009.0 1005.0 0.0
18/02:30pm 37.5 35.7 10.7 20 16.2 SSW 11 17 6 9 1009.4 1005.4 0.0
18/02:00pm 36.6 34.8 10.7 21 15.5 SSE 11 17 6 9 1009.7 1005.8 0.0
18/01:30pm 36.5 35.0 10.6 21 15.5 SE 9 15 5 8 1009.8 1005.9 0.0
18/01:00pm 36.7 33.5 10.1 20 15.8 SE 17 24 9 13 1009.8 1005.9 0.0
18/12:30pm 36.2 34.7 10.4 21 15.4 SE 9 17 5 9 1010.0 1006.1 0.0
18/12:00pm 36.2 34.7 10.4 21 15.4 SSE 9 17 5 9 1009.8 1005.9 0.0
18/11:30am 36.2 34.3 10.4 21 15.4 SE 11 17 6 9 1010.0 1006.1 0.0
18/11:00am 35.9 32.8 10.2 21 15.3 ENE 17 24 9 13 1010.2 1006.3 0.0
18/10:30am 35.1 31.2 9.5 21 15.0 SE 20 32 11 17 1010.2 1006.3 0.0
18/10:00am 34.6 30.8 9.8 22 14.6 SE 20 26 11 14 1010.1 1006.2 0.0
18/09:30am 34.2 30.3 8.8 21 14.7 SE 19 26 10 14 1010.2 1006.3 0.0
18/09:00am 33.7 29.9 9.0 22 14.3 SSE 19 24 10 13 1010.1 1006.2 0.0
18/08:30am 33.2 29.5 9.3 23 13.9 SSE 19 26 10 14 1010.0 1006.1 0.0
18/08:00am 32.5 29.1 9.3 24 13.4 SE 17 28 9 15 1009.6 1005.7 0.0
18/07:30am 32.2 29.3 9.7 25 13.1 SE 15 20 8 11 1009.3 1005.3 0.0
18/07:00am 31.5 29.4 9.7 26 12.6 SSE 11 15 6 8 1008.6 1004.6 0.0
18/06:30am 31.5 29.4 9.7 26 12.6 S 11 17 6 9 1008.0 1004.1 0.0
18/06:00am 32.2 30.5 9.7 25 13.1 SSE 9 19 5 10 1007.4 1003.4 0.0
18/05:30am 33.5 30.6 9.5 23 14.0 SSE 15 28 8 15 1006.9 1002.9 0.0
18/05:00am 33.1 30.6 9.8 24 13.6 SSW 13 19 7 10 1006.9 1002.9 0.0
18/04:30am 33.4 30.6 10.1 24 13.7 SSE 15 22 8 12 1006.3 1002.3 0.0
18/04:00am 33.6 30.1 10.2 24 13.8 SSE 19 26 10 14 1005.7 1001.8 0.0
18/03:30am 35.4 33.3 11.1 23 14.6 SE 13 20 7 11 1005.6 1001.6 0.0
18/03:00am 35.4 33.3 11.1 23 14.6 ESE 13 19 7 10 1005.6 1001.6 0.0
18/02:30am 35.6 31.3 10.6 22 15.0 NNE 24 32 13 17 1005.5 1001.5 0.0
18/02:00am 36.3 31.6 10.5 21 15.4 NE 26 33 14 18 1005.2 1001.2 0.0
18/01:30am 36.7 32.0 9.3 19 16.2 NE 24 32 13 17 1005.0 1001.0 0.0
18/01:29am 36.8 32.1 9.4 19 16.1 NE 24 32 13 17 1005.0 1001.0 0.0
18/01:00am 35.3 33.9 9.7 21 15.1 E 7 9 4 5 1005.1 1001.1 0.0
18/12:30am 33.8 32.1 9.8 23 14.1 SSE 9 13 5 7 1005.2 1001.2 0.0
18/12:00am 33.7 32.3 9.7 23 14.1 SW 7 11 4 6 1004.9 1000.9 0.0
 
Date/Time
CST
Temp
°C
App
Temp
°C
Dew
Point
°C
Rel
Hum
%
Delta-T
°C
Wind Press
QNH
hPa
Press
MSL
hPa
Rain since
9am
mm
Dir  Spd
km/h
Gust
km/h
Spd
kts
Gust
kts
17/11:30pm 34.1 32.3 9.4 22 14.4 WSW 9 11 5 6 1005.0 1001.0 0.0
17/11:00pm 35.1 33.1 8.8 20 15.2 W 9 11 5 6 1005.1 1001.1 0.0
17/10:30pm 37.7 37.2 9.3 18 16.8 N 2 6 1 3 1005.1 1001.1 0.0
17/10:00pm 37.8 35.8 8.6 17 17.1 SSW 9 15 5 8 1005.1 1001.1 0.0
17/09:30pm 38.6 34.6 9.2 17 17.5 SSW 20 28 11 15 1004.6 1000.6 0.0
17/09:00pm 39.6 36.1 7.1 14 18.8 WSW 15 20 8 11 1004.0 1000.0 0.0
17/08:30pm 39.9 36.4 7.4 14 18.9 N 15 20 8 11 1003.5 999.5 0.0
17/08:00pm 40.3 37.7 4.2 11 20.0 NNW 7 9 4 5 1003.1 999.1 0.0
17/07:30pm 41.4 38.3 3.7 10 20.9 NNW 9 15 5 8 1002.8 998.8 0.0
17/07:00pm 42.6 39.7 4.6 10 21.4 NW 9 13 5 7 1002.6 998.6 0.0
17/06:30pm 42.7 37.9 4.6 10 21.6 NNW 19 30 10 16 1002.2 998.2 0.0
17/06:00pm 43.5 40.3 5.2 10 21.9 NW 11 20 6 11 1002.0 997.9 0.0
17/05:30pm 43.6 39.7 5.3 10 22.0 NW 15 24 8 13 1002.2 998.2 0.0
17/05:00pm 43.2 39.2 5.0 10 21.7 NNW 15 30 8 16 1002.3 998.3 0.0
17/04:30pm 44.5 39.7 4.5 9 22.8 NW 19 35 10 19 1002.6 998.6 0.0
17/04:00pm 43.9 40.5 4.0 9 22.4 NNW 11 20 6 11 1002.9 998.9 0.0
17/03:30pm 43.8 40.7 5.5 10 22.1 NW 11 20 6 11 1003.3 999.3 0.0
17/03:00pm 44.2 40.4 5.8 10 22.2 NW 15 26 8 14 1003.7 999.7 0.0
17/02:30pm 43.0 39.4 4.9 10 21.7 NNW 13 24 7 13 1004.2 1000.2 0.0
17/02:00pm 43.9 40.7 6.9 11 21.7 NNE 13 22 7 12 1004.6 1000.6 0.0
17/01:30pm 43.6 39.0 8.0 12 21.2 N 22 35 12 19 1005.2 1001.2 0.0
17/01:00pm 43.1 38.9 9.9 14 20.2 NNW 22 33 12 18 1005.8 1001.9 0.0
17/12:30pm 41.8 39.0 9.9 15 19.4 NW 15 22 8 12 1006.3 1002.3 0.0
17/12:00pm 40.9 37.7 10.1 16 18.7 NW 17 24 9 13 1006.8 1002.8 0.0
17/11:30am 39.4 37.0 11.5 19 17.1 NNW 15 26 8 14 1007.1 1003.1 0.0
17/11:00am 40.1 37.7 12.8 19 17.1 NNW 17 26 9 14 1007.5 1003.5 0.0
17/10:30am 38.4 35.7 12.9 22 15.9 NNW 19 24 10 13 1007.8 1003.9 0.0
17/10:00am 37.1 35.3 13.2 24 14.9 WNW 15 22 8 12 1007.7 1003.8 0.0
17/09:30am 36.3 35.0 13.7 25 14.2 NW 13 24 7 13 1007.9 1004.0 0.0
17/09:00am 35.1 33.1 13.9 28 13.3 NNW 17 24 9 13 1007.9 1004.0 0.0
17/08:30am 34.3 31.3 13.7 29 12.8 NNW 22 28 12 15 1007.7 1003.8 0.0
17/08:00am 34.0 32.3 13.5 29 12.7 NW 15 20 8 11 1007.4 1003.4 0.0
17/07:30am 33.5 32.7 13.0 29 12.6 NNW 9 15 5 8 1007.3 1003.3 0.0
17/07:00am 32.3 31.9 13.0 31 11.8 NNW 7 9 4 5 1007.1 1003.1 0.0
17/06:30am 30.7 30.2 12.1 32 11.2 W 6 7 3 4 1006.8 1002.8 0.0
17/06:00am 31.3 30.8 12.2 31 11.5 WNW 6 9 3 5 1006.5 1002.5 0.0
17/05:30am 33.0 31.6 12.1 28 12.7 NNW 11 13 6 7 1006.4 1002.4 0.0
17/05:00am 33.8 32.2 11.6 26 13.4 NW 11 17 6 9 1005.8 1001.9 0.0
17/04:30am 33.2 32.6 10.5 25 13.4 SE 4 9 2 5 1005.5 1001.5 0.0
17/04:00am 35.2 33.8 10.9 23 14.5 NW 9 15 5 8 1005.4 1001.4 0.0
17/03:30am 34.3 34.4 10.2 23 14.3 CALM 0 6 0 3 1005.2 1001.2 0.0
17/03:00am 35.2 34.0 10.3 22 14.8 E 7 11 4 6 1005.3 1001.3 0.0
17/02:30am 36.0 34.4 8.7 19 15.9 WNW 7 17 4 9 1005.4 1001.4 0.0
17/02:00am 34.8 33.1 12.5 26 13.6 NNW 13 20 7 11 1005.8 1001.9 0.0
17/01:30am 35.2 32.7 10.9 23 14.6 NW 15 24 8 13 1006.1 1002.1 0.0
17/01:00am 33.0 30.0 9.1 23 13.8 WNW 15 22 8 12 1006.2 1002.2 0.0
17/12:30am 34.4 32.5 8.9 21 14.8 ENE 9 13 5 7 1006.2 1002.2 0.0
17/12:00am 34.7 32.6 8.4 20 15.2 E 9 13 5 7 1006.2 1002.2 0.0
 
Date/Time
CST
Temp
°C
App
Temp
°C
Dew
Point
°C
Rel
Hum
%
Delta-T
°C
Wind Press
QNH
hPa
Press
MSL
hPa
Rain since
9am
mm
Dir  Spd
km/h
Gust
km/h
Spd
kts
Gust
kts
16/11:30pm 35.1 33.3 8.0 19 15.6 N 7 9 4 5 1006.2 1002.2 0.0
16/11:00pm 35.7 33.1 7.7 18 16.0 ENE 11 13 6 7 1005.9 1002.0 0.0
16/10:30pm 36.2 33.7 8.1 18 16.2 ENE 11 15 6 8 1005.8 1001.9 0.0
16/10:00pm 36.4 34.7 8.3 18 16.3 NNE 7 11 4 6 1005.6 1001.6 0.0
16/09:30pm 37.4 34.7 7.3 16 17.3 NE 11 13 6 7 1005.3 1001.3 0.0
16/09:00pm 37.8 35.2 7.7 16 17.4 NE 11 15 6 8 1005.0 1001.0 0.0
16/08:30pm 38.3 35.5 7.1 15 17.9 NE 11 15 6 8 1004.7 1000.7 0.0
16/08:00pm 40.4 37.9 6.7 13 19.4 ENE 9 9 5 5 1004.4 1000.4 0.0
16/07:30pm 41.2 38.6 6.1 12 20.2 ENE 9 11 5 6 1004.1 1000.1 0.0
16/07:00pm 41.4 38.5 6.3 12 20.2 NE 11 13 6 7 1003.9 999.8 0.0
16/06:30pm 41.9 39.2 5.4 11 20.8 NNE 9 13 5 7 1003.6 999.6 0.0
16/06:00pm 42.2 38.7 5.6 11 21.0 NNE 13 20 7 11 1003.6 999.6 0.0
16/05:42pm 43.2 37.5 5.0 10 21.7 NE 24 50 13 27 1003.4 999.4 0.0
16/05:30pm 43.3 39.7 5.1 10 21.8 NNE 13 22 7 12 1003.5 999.5 0.0
16/05:00pm 43.3 39.7 5.1 10 21.7 NNW 13 22 7 12 1003.7 999.7 0.0
16/04:30pm 43.0 38.6 4.9 10 21.7 NW 17 22 9 12 1003.9 999.8 0.0
16/04:00pm 44.2 40.1 4.2 9 22.6 N 15 28 8 15 1004.1 1000.1 0.0
16/03:30pm 43.7 39.8 5.4 10 22.0 NNW 15 28 8 15 1004.4 1000.4 0.0
16/03:00pm 44.0 40.5 5.6 10 22.1 NW 13 28 7 15 1004.9 1000.9 0.0
16/02:30pm 43.8 39.2 5.5 10 22.0 WNW 19 28 10 15 1005.4 1001.4 0.0
16/02:00pm 43.3 38.0 5.1 10 21.7 N 22 35 12 19 1005.7 1001.8 0.0
16/01:30pm 44.3 38.4 5.8 10 22.3 NNE 26 35 14 19 1006.2 1002.2 0.0
16/01:00pm 42.2 37.4 5.6 11 20.9 NNE 20 30 11 16 1006.6 1002.6 0.0
16/12:30pm 43.2 37.9 5.0 10 21.8 NNE 22 32 12 17 1007.2 1003.2 0.0
16/12:00pm 41.9 37.5 6.7 12 20.4 NNW 19 33 10 18 1007.6 1003.7 0.0
16/11:30am 41.8 37.5 7.8 13 20.0 NNW 20 33 11 18 1008.0 1004.1 0.0
16/11:00am 40.9 36.7 8.1 14 19.3 NW 20 33 11 18 1008.3 1004.3 0.0
16/10:30am 40.2 35.1 7.6 14 19.0 NNW 24 35 13 19 1008.6 1004.6 0.0
16/10:00am 40.4 35.7 7.8 14 19.0 N 22 33 12 18 1008.8 1004.8 0.0
16/09:30am 39.1 33.6 7.7 15 18.3 N 26 35 14 19 1009.1 1005.1 0.0
16/09:00am 39.3 33.5 7.9 15 18.3 NNE 28 37 15 20 1009.3 1005.3 0.0
16/08:30am 37.8 31.1 5.7 14 18.0 NNE 30 39 16 21 1009.2 1005.2 0.0
16/08:00am 35.8 29.4 5.1 15 16.9 NE 28 37 15 20 1009.2 1005.2 0.0
16/07:30am 34.2 29.4 5.7 17 15.7 NE 20 28 11 15 1009.0 1005.0 0.0
16/07:00am 31.9 27.1 5.4 19 14.3 ENE 20 26 11 14 1008.7 1004.7 0.0
16/06:30am 30.6 26.6 5.1 20 13.7 ENE 15 19 8 10 1008.5 1004.5 0.0
16/06:00am 30.2 26.6 4.8 20 13.5 E 13 15 7 8 1008.0 1004.1 0.0
16/05:30am 30.2 26.4 4.0 19 13.8 E 13 17 7 9 1007.6 1003.7 0.0
16/05:00am 30.5 26.8 4.3 19 13.8 E 13 17 7 9 1007.5 1003.5 0.0
16/04:30am 31.0 26.8 3.9 18 14.3 E 15 19 8 10 1007.2 1003.2 0.0
16/04:00am 31.0 27.2 3.9 18 14.2 E 13 17 7 9 1007.1 1003.1 0.0
16/03:30am 31.2 28.0 3.3 17 14.6 E 9 13 5 7 1007.1 1003.1 0.0
16/03:00am 31.5 27.9 2.7 16 14.9 E 11 13 6 7 1007.1 1003.1 0.0
16/02:30am 32.0 28.3 2.1 15 15.4 E 11 13 6 7 1007.1 1003.1 0.0
16/02:00am 32.1 28.9 3.1 16 15.1 E 9 13 5 7 1007.2 1003.2 0.0
16/01:30am 32.8 29.8 1.8 14 15.9 E 7 9 4 5 1007.3 1003.3 0.0
16/01:00am 33.6 30.3 2.4 14 16.2 E 9 11 5 6 1007.5 1003.5 0.0
16/12:30am 34.1 30.3 1.8 13 16.7 E 11 13 6 7 1007.7 1003.8 0.0
16/12:00am 34.7 30.8 1.1 12 17.3 E 11 15 6 8 1007.7 1003.8 0.0
 
Date/Time
CST
Temp
°C
App
Temp
°C
Dew
Point
°C
Rel
Hum
%
Delta-T
°C
Wind Press
QNH
hPa
Press
MSL
hPa
Rain since
9am
mm
Dir  Spd
km/h
Gust
km/h
Spd
kts
Gust
kts
15/11:30pm 35.7 31.7 0.7 11 18.0 E 11 15 6 8 1007.6 1003.7 0.0
15/11:00pm 36.3 31.6 1.2 11 18.2 ENE 15 19 8 10 1007.7 1003.8 0.0
15/10:30pm 37.6 32.1 0.8 10 19.2 E 19 22 10 12 1007.5 1003.5 0.0
15/10:00pm 37.4 33.1 0.7 10 19.0 E 13 17 7 9 1007.4 1003.4 0.0
15/09:30pm 38.2 34.1 -0.2 9 19.8 E 11 13 6 7 1007.1 1003.1 0.0
15/09:00pm 39.5 34.8 0.8 9 20.4 E 15 19 8 10 1006.8 1002.8 0.0
15/08:30pm 40.2 35.7 -0.3 8 21.0 E 13 15 7 8 1006.5 1002.5 0.0
15/08:00pm 41.6 36.6 -1.1 7 22.0 E 15 20 8 11 1006.2 1002.2 0.0
15/07:30pm 42.8 37.0 -0.3 7 22.7 E 20 26 11 14 1005.9 1002.0 0.0
15/07:00pm 43.8 37.7 0.4 7 23.2 E 22 32 12 17 1005.6 1001.6 0.0
15/06:30pm 44.2 39.9 0.7 7 23.4 E 13 20 7 11 1005.5 1001.5 0.0
15/06:00pm 44.8 39.8 1.2 7 23.7 E 17 32 9 17 1005.5 1001.5 0.0
15/05:30pm 45.3 39.4 1.5 7 24.0 ESE 22 35 12 19 1005.3 1001.3 0.0
15/05:00pm 44.1 39.4 0.7 7 23.3 E 15 24 8 13 1005.4 1001.4 0.0

Other Formats:

Comma delimited format used in spreadsheet applications
http://www.bom.gov.au/fwo/IDD60801/IDD60801.94462.axf

JavaScript Object Notation format (JSON) in row-major order
http://www.bom.gov.au/fwo/IDD60801/IDD60801.94462.json